Nelda Faye — WCX5150 — position and weather

sailwx.info

Track history (hours):
 
Tides and Currents Weather Stations Pressure Air Temp Water Temp Dewpoint Dewpoint Depression Visibility Wind Speed Wind Dir Waves Ship Positions

Nelda Faye

Owner: TARA CROSBY INC, GOLDEN MEADOW, LA. More information available from US FCC via Universal Licensing System and Coast Guard Vessel Documentation Center.

Last reported at 2018-May-21 03:16 UTC. Time now 2018-May-21 09:14 UTC.
Position N 29°47' W 095°05'.

Length 21 m; draft 2.5 m.

Type: Towing. MMSI: 367028910.

Date/timePositionNaut miles runAvg speedWind from/ knotsBaromVisibWave heightAir tempDewpointWater temp
2018-May-21 03:16N 29°47' W 095°05'1 0.0
2018-May-19 23:29N 29°46' W 095°05'3 5.6
2018-May-19 22:59N 29°44' W 095°07'3 5.9
2018-May-19 22:29N 29°45' W 095°11'3 5.3
2018-May-19 21:58N 29°44' W 095°13'1 0.1
2018-May-19 05:34N 29°43' W 095°15'1 3.4
2018-May-19 05:21N 29°44' W 095°14'3 4.7
2018-May-19 04:44N 29°45' W 095°11'2 6.1
2018-May-19 04:27N 29°44' W 095°09'5 2.8
2018-May-19 02:51N 29°47' W 095°05'0 0.0
2018-May-19 02:29N 29°47' W 095°05'1 0.1
2018-May-18 10:49N 29°47' W 095°06'0 0.0
2018-May-18 10:28N 29°47' W 095°06'0 0.0
2018-May-18 09:49N 29°47' W 095°06'0 0.0
2018-May-18 09:28N 29°47' W 095°06'0 0.0
2018-May-18 08:58N 29°47' W 095°06'0 0.0
2018-May-18 08:16N 29°47' W 095°06'0 0.0
2018-May-18 07:58N 29°47' W 095°06'0 0.0
2018-May-18 07:28N 29°47' W 095°06'0 0.0
2018-May-18 06:58N 29°47' W 095°06'0 0.0
2018-May-18 06:28N 29°47' W 095°06'0 0.0
2018-May-18 05:55N 29°47' W 095°06'0 0.0
2018-May-18 05:28N 29°47' W 095°06'0 0.0
2018-May-18 04:58N 29°47' W 095°06'0 0.0
2018-May-18 04:28N 29°47' W 095°06'0 0.0
2018-May-18 04:00N 29°47' W 095°06'0 0.9
2018-May-18 03:30N 29°46' W 095°06'1 1.0
2018-May-18 03:00N 29°46' W 095°06'1 1.5
2018-May-18 02:30N 29°45' W 095°06'1 1.2
2018-May-18 01:56N 29°45' W 095°06'0 0.0
2018-May-17 10:16N 29°45' W 095°06'0 0.1
2018-May-17 08:29N 29°45' W 095°06'1 2.9
2018-May-17 07:58N 29°46' W 095°06'0 0.3
2018-May-17 06:18N 29°47' W 095°06'0 0.9
2018-May-17 05:58N 29°47' W 095°06'1 1.8
2018-May-17 05:24N 29°47' W 095°05'0 0.0
2018-May-17 05:00N 29°47' W 095°05'0 0.0
2018-May-17 04:12N 29°47' W 095°05'0 0.0
2018-May-17 04:00N 29°47' W 095°05'1 1.2
2018-May-17 03:30N 29°47' W 095°04'1 2.4
2018-May-17 02:53N 29°47' W 095°06'0 0.0
2018-May-17 02:20N 29°47' W 095°06'0 0.0
2018-May-17 01:59N 29°47' W 095°06'3 0.6
2018-May-16 19:59N 29°44' W 095°03'2 5.1
2018-May-16 19:30N 29°43' W 095°01'3 5.2
2018-May-16 19:00N 29°41' W 094°59'3 5.6
2018-May-16 18:30N 29°38' W 094°58'3 5.9
2018-May-16 18:00N 29°36' W 094°57'3 6.0
2018-May-16 17:30N 29°33' W 094°55'3 5.9
2018-May-16 17:00N 29°31' W 094°53'8 6.2
2018-May-16 15:43N 29°24' W 094°49'1 6.1
2018-May-16 15:30N 29°23' W 094°48'2 4.8
2018-May-16 14:59N 29°24' W 094°45'1 2.9
2018-May-16 14:30N 29°25' W 094°44'2 3.1
2018-May-16 14:00N 29°26' W 094°43'3 5.2
2018-May-16 13:30N 29°27' W 094°41'3 5.0
2018-May-16 13:00N 29°28' W 094°38'2 4.9
2018-May-16 12:30N 29°29' W 094°35'3 5.0
2018-May-16 12:00N 29°30' W 094°33'2 3.2
2018-May-16 11:30N 29°31' W 094°31'0 0.0
2018-May-16 11:00N 29°31' W 094°31'1 2.3
2018-May-16 10:30N 29°31' W 094°30'2 4.6
2018-May-16 10:00N 29°33' W 094°28'2 3.6
2018-May-16 09:30N 29°34' W 094°26'2 3.1
2018-May-16 09:00N 29°35' W 094°25'2 3.5
2018-May-16 08:30N 29°36' W 094°23'2 4.9
2018-May-16 08:00N 29°37' W 094°21'2 4.9
2018-May-16 07:30N 29°38' W 094°18'2 4.9
2018-May-16 07:00N 29°39' W 094°16'3 5.0
2018-May-16 06:30N 29°40' W 094°13'2 4.9
2018-May-16 06:00N 29°41' W 094°10'2 4.7
2018-May-16 05:30N 29°42' W 094°08'2 4.7
2018-May-16 05:00N 29°44' W 094°06'2 4.5
2018-May-16 04:30N 29°45' W 094°04'2 4.5
2018-May-16 04:00N 29°47' W 094°02'2 3.9
2018-May-16 03:30N 29°48' W 094°00'2 3.5
2018-May-16 03:00N 29°49' W 093°59'2 5.0
2018-May-16 02:30N 29°51' W 093°57'4 7.3
2018-May-16 02:00N 29°54' W 093°54'3 6.7
2018-May-16 01:30N 29°57' W 093°52'2 5.0
2018-May-16 01:00N 29°59' W 093°53'3 6.4
2018-May-16 00:30N 29°60' W 093°56'0 0.5
2018-May-16 00:00N 29°60' W 093°57'0 0.0
2018-May-15 23:30N 29°60' W 093°57'0 0.0
2018-May-15 22:59N 29°60' W 093°57'0 0.0
2018-May-15 22:30N 29°60' W 093°57'0 0.0
2018-May-15 22:00N 29°60' W 093°57'0 0.0
2018-May-15 21:30N 29°60' W 093°57'0 0.0
2018-May-15 21:00N 29°60' W 093°57'0 0.0
2018-May-15 20:30N 29°60' W 093°57'0 0.0
2018-May-15 20:00N 29°60' W 093°57'0 0.0
2018-May-15 19:30N 29°60' W 093°57'0 0.0
2018-May-15 19:00N 29°60' W 093°57'0 0.0
2018-May-15 18:30N 29°60' W 093°57'0 0.0
2018-May-15 18:00N 29°60' W 093°57'0 0.0
2018-May-15 17:30N 29°60' W 093°57'0 0.0
2018-May-15 17:00N 29°60' W 093°57'0 0.0
2018-May-15 16:29N 29°60' W 093°57'0 0.0
2018-May-15 16:00N 29°60' W 093°57'0 0.0
2018-May-15 15:30N 29°60' W 093°57'0 0.0
2018-May-15 15:00N 29°60' W 093°57'0 0.0
2018-May-15 14:30N 29°60' W 093°57'0 0.0
2018-May-15 14:00N 29°60' W 093°57'0 0.0
2018-May-15 13:30N 29°60' W 093°57'0 0.0
2018-May-15 13:00N 29°60' W 093°57'0 0.0
2018-May-15 12:30N 29°60' W 093°57'0 0.0
2018-May-15 12:00N 29°60' W 093°57'0 0.0
2018-May-15 11:30N 29°60' W 093°57'0 0.0
2018-May-15 11:00N 29°60' W 093°57'0 0.0
2018-May-15 10:30N 29°60' W 093°57'0 0.0
2018-May-15 10:00N 29°60' W 093°57'0 0.0
2018-May-15 09:30N 29°60' W 093°57'0 0.0
2018-May-15 09:00N 29°60' W 093°57'0 0.0
2018-May-15 08:30N 29°60' W 093°57'0 0.0
2018-May-15 08:00N 29°60' W 093°57'0 0.0
2018-May-15 07:30N 29°60' W 093°57'0 0.0
2018-May-15 07:00N 29°60' W 093°57'0 0.0
2018-May-15 06:30N 29°60' W 093°57'0 0.0
2018-May-15 06:00N 29°60' W 093°57'0 0.0
2018-May-15 05:30N 29°60' W 093°57'0 0.0
2018-May-15 05:00N 29°60' W 093°57'0 0.0
2018-May-15 04:30N 29°60' W 093°57'0 0.0
2018-May-15 04:00N 29°60' W 093°57'0 0.0
2018-May-15 03:31N 29°60' W 093°57'0 0.0
2018-May-15 03:00N 29°60' W 093°57'0 0.0
2018-May-15 02:30N 29°60' W 093°57'0 0.0
2018-May-15 02:00N 29°60' W 093°57'0 0.0
2018-May-15 01:30N 29°60' W 093°57'0 0.0
2018-May-15 01:01N 29°60' W 093°57'0 0.0
2018-May-15 00:30N 29°60' W 093°57'0 0.0
2018-May-15 00:00N 29°60' W 093°57'0 0.0
2018-May-14 23:31N 29°60' W 093°57'0 0.0
2018-May-14 23:01N 29°60' W 093°57'0 0.0
2018-May-14 22:30N 29°60' W 093°57'0 0.0
2018-May-14 22:00N 29°60' W 093°57'0 0.0
2018-May-14 21:30N 29°60' W 093°57'0 0.0
2018-May-14 21:00N 29°60' W 093°57'0 0.0
2018-May-14 20:30N 29°60' W 093°57'0 0.0
2018-May-14 20:00N 29°60' W 093°57'0 0.0
2018-May-14 19:30N 29°60' W 093°57'0 0.0
2018-May-14 19:01N 29°60' W 093°57'0 0.1
2018-May-14 18:31N 29°60' W 093°57'0 0.1
2018-May-14 18:01N 29°60' W 093°57'0 0.3
2018-May-14 17:30N 29°60' W 093°57'0 0.0
2018-May-14 17:00N 29°60' W 093°57'2 3.8
2018-May-14 16:30N 29°59' W 093°54'3 5.4
2018-May-14 16:00N 29°58' W 093°51'3 5.7
2018-May-14 15:30N 29°56' W 093°52'3 5.8
2018-May-14 15:01N 29°54' W 093°55'3 5.3
2018-May-14 14:30N 29°51' W 093°56'3 5.4
2018-May-14 14:00N 29°49' W 093°58'2 5.0
2018-May-14 13:31N 29°48' W 094°01'3 5.6
2018-May-14 13:00N 29°46' W 094°03'3 5.4
2018-May-14 12:30N 29°44' W 094°05'3 5.3
2018-May-14 12:00N 29°43' W 094°08'2 4.8
2018-May-14 11:29N 29°41' W 094°10'2 5.0
2018-May-14 11:00N 29°40' W 094°13'3 5.2
2018-May-14 10:30N 29°39' W 094°16'3 5.1
2018-May-14 09:59N 29°38' W 094°18'3 5.2
2018-May-14 09:30N 29°37' W 094°21'4 4.5
2018-May-14 08:39N 29°35' W 094°25'1 4.8
2018-May-14 08:27N 29°35' W 094°25'3 4.1
2018-May-14 07:47N 29°33' W 094°28'17 5.2
2018-May-14 04:33N 29°25' W 094°44'0 4.8
2018-May-14 04:27N 29°24' W 094°45'2 4.1
2018-May-14 04:01N 29°23' W 094°46'2 3.9
2018-May-14 03:30N 29°23' W 094°48'2 4.0
2018-May-14 03:00N 29°24' W 094°49'3 5.6
2018-May-14 02:28N 29°27' W 094°51'3 6.4
2018-May-14 02:00N 29°30' W 094°52'3 6.2
2018-May-14 01:30N 29°32' W 094°54'3 5.7
2018-May-14 01:00N 29°35' W 094°56'3 5.6
2018-May-14 00:30N 29°37' W 094°58'3 5.7
2018-May-14 00:01N 29°40' W 094°59'3 5.4
2018-May-13 23:30N 29°42' W 095°00'2 4.7
2018-May-13 23:00N 29°44' W 095°02'3 5.3
2018-May-13 22:27N 29°46' W 095°05'3 5.5
2018-May-13 21:57N 29°44' W 095°07'2 5.4
2018-May-13 21:30N 29°45' W 095°10'3 5.2
2018-May-13 20:54N 29°43' W 095°13'0 0.0
2018-May-12 15:39N 29°44' W 095°14'2 5.7
2018-May-12 15:21N 29°44' W 095°12'2 5.4
2018-May-12 14:57N 29°45' W 095°10'2 4.5
2018-May-12 14:30N 29°44' W 095°07'2 4.7
2018-May-12 14:00N 29°46' W 095°05'1 2.1
2018-May-12 13:30N 29°47' W 095°06'0 0.2
2018-May-12 12:22N 29°47' W 095°06'0 0.9
2018-May-12 12:00N 29°47' W 095°06'2 0.1
2018-May-11 15:25N 29°45' W 095°06'1 2.6
2018-May-11 15:00N 29°46' W 095°06'1 1.1
2018-May-11 14:10N 29°47' W 095°06'1 0.1
2018-May-11 05:13N 29°47' W 095°05'2 3.9
2018-May-11 04:49N 29°45' W 095°04'2 5.7
2018-May-11 04:30N 29°44' W 095°03'2 4.9
2018-May-11 04:00N 29°42' W 095°01'3 5.4
2018-May-11 03:30N 29°40' W 094°59'  
Track history (hours):
 
Tides and Currents Weather Stations Pressure Air Temp Water Temp Dewpoint Dewpoint Depression Visibility Wind Speed Wind Dir Waves Ship Positions

Nelda Faye

Owner: TARA CROSBY INC, GOLDEN MEADOW, LA. More information available from US FCC via Universal Licensing System and Coast Guard Vessel Documentation Center.

Last reported at 2018-May-21 03:16 UTC. Time now 2018-May-21 09:14 UTC.
Position N 29°47' W 095°05'.

Length 21 m; draft 2.5 m.

Type: Towing. MMSI: 367028910.

Date/timePositionNaut miles runAvg speedWind from/ knotsBaromVisibWave heightAir tempDewpointWater temp
2018-May-21 03:16N 29°47' W 095°05'1 0.0
2018-May-19 23:29N 29°46' W 095°05'3 5.6
2018-May-19 22:59N 29°44' W 095°07'3 5.9
2018-May-19 22:29N 29°45' W 095°11'3 5.3
2018-May-19 21:58N 29°44' W 095°13'1 0.1
2018-May-19 05:34N 29°43' W 095°15'1 3.4
2018-May-19 05:21N 29°44' W 095°14'3 4.7
2018-May-19 04:44N 29°45' W 095°11'2 6.1
2018-May-19 04:27N 29°44' W 095°09'5 2.8
2018-May-19 02:51N 29°47' W 095°05'0 0.0
2018-May-19 02:29N 29°47' W 095°05'1 0.1
2018-May-18 10:49N 29°47' W 095°06'0 0.0
2018-May-18 10:28N 29°47' W 095°06'0 0.0
2018-May-18 09:49N 29°47' W 095°06'0 0.0
2018-May-18 09:28N 29°47' W 095°06'0 0.0
2018-May-18 08:58N 29°47' W 095°06'0 0.0
2018-May-18 08:16N 29°47' W 095°06'0 0.0
2018-May-18 07:58N 29°47' W 095°06'0 0.0
2018-May-18 07:28N 29°47' W 095°06'0 0.0
2018-May-18 06:58N 29°47' W 095°06'0 0.0
2018-May-18 06:28N 29°47' W 095°06'0 0.0
2018-May-18 05:55N 29°47' W 095°06'0 0.0
2018-May-18 05:28N 29°47' W 095°06'0 0.0
2018-May-18 04:58N 29°47' W 095°06'0 0.0
2018-May-18 04:28N 29°47' W 095°06'0 0.0
2018-May-18 04:00N 29°47' W 095°06'0 0.9
2018-May-18 03:30N 29°46' W 095°06'1 1.0
2018-May-18 03:00N 29°46' W 095°06'1 1.5
2018-May-18 02:30N 29°45' W 095°06'1 1.2
2018-May-18 01:56N 29°45' W 095°06'0 0.0
2018-May-17 10:16N 29°45' W 095°06'0 0.1
2018-May-17 08:29N 29°45' W 095°06'1 2.9
2018-May-17 07:58N 29°46' W 095°06'0 0.3
2018-May-17 06:18N 29°47' W 095°06'0 0.9
2018-May-17 05:58N 29°47' W 095°06'1 1.8
2018-May-17 05:24N 29°47' W 095°05'0 0.0
2018-May-17 05:00N 29°47' W 095°05'0 0.0
2018-May-17 04:12N 29°47' W 095°05'0 0.0
2018-May-17 04:00N 29°47' W 095°05'1 1.2
2018-May-17 03:30N 29°47' W 095°04'1 2.4
2018-May-17 02:53N 29°47' W 095°06'0 0.0
2018-May-17 02:20N 29°47' W 095°06'0 0.0
2018-May-17 01:59N 29°47' W 095°06'3 0.6
2018-May-16 19:59N 29°44' W 095°03'2 5.1
2018-May-16 19:30N 29°43' W 095°01'3 5.2
2018-May-16 19:00N 29°41' W 094°59'3 5.6
2018-May-16 18:30N 29°38' W 094°58'3 5.9
2018-May-16 18:00N 29°36' W 094°57'3 6.0
2018-May-16 17:30N 29°33' W 094°55'3 5.9
2018-May-16 17:00N 29°31' W 094°53'8 6.2
2018-May-16 15:43N 29°24' W 094°49'1 6.1
2018-May-16 15:30N 29°23' W 094°48'2 4.8
2018-May-16 14:59N 29°24' W 094°45'1 2.9
2018-May-16 14:30N 29°25' W 094°44'2 3.1
2018-May-16 14:00N 29°26' W 094°43'3 5.2
2018-May-16 13:30N 29°27' W 094°41'3 5.0
2018-May-16 13:00N 29°28' W 094°38'2 4.9
2018-May-16 12:30N 29°29' W 094°35'3 5.0
2018-May-16 12:00N 29°30' W 094°33'2 3.2
2018-May-16 11:30N 29°31' W 094°31'0 0.0
2018-May-16 11:00N 29°31' W 094°31'1 2.3
2018-May-16 10:30N 29°31' W 094°30'2 4.6
2018-May-16 10:00N 29°33' W 094°28'2 3.6
2018-May-16 09:30N 29°34' W 094°26'2 3.1
2018-May-16 09:00N 29°35' W 094°25'2 3.5
2018-May-16 08:30N 29°36' W 094°23'2 4.9
2018-May-16 08:00N 29°37' W 094°21'2 4.9
2018-May-16 07:30N 29°38' W 094°18'2 4.9
2018-May-16 07:00N 29°39' W 094°16'3 5.0
2018-May-16 06:30N 29°40' W 094°13'2 4.9
2018-May-16 06:00N 29°41' W 094°10'2 4.7
2018-May-16 05:30N 29°42' W 094°08'2 4.7
2018-May-16 05:00N 29°44' W 094°06'2 4.5
2018-May-16 04:30N 29°45' W 094°04'2 4.5
2018-May-16 04:00N 29°47' W 094°02'2 3.9
2018-May-16 03:30N 29°48' W 094°00'2 3.5
2018-May-16 03:00N 29°49' W 093°59'2 5.0
2018-May-16 02:30N 29°51' W 093°57'4 7.3
2018-May-16 02:00N 29°54' W 093°54'3 6.7
2018-May-16 01:30N 29°57' W 093°52'2 5.0
2018-May-16 01:00N 29°59' W 093°53'3 6.4
2018-May-16 00:30N 29°60' W 093°56'0 0.5
2018-May-16 00:00N 29°60' W 093°57'0 0.0
2018-May-15 23:30N 29°60' W 093°57'0 0.0
2018-May-15 22:59N 29°60' W 093°57'0 0.0
2018-May-15 22:30N 29°60' W 093°57'0 0.0
2018-May-15 22:00N 29°60' W 093°57'0 0.0
2018-May-15 21:30N 29°60' W 093°57'0 0.0
2018-May-15 21:00N 29°60' W 093°57'0 0.0
2018-May-15 20:30N 29°60' W 093°57'0 0.0
2018-May-15 20:00N 29°60' W 093°57'0 0.0
2018-May-15 19:30N 29°60' W 093°57'0 0.0
2018-May-15 19:00N 29°60' W 093°57'0 0.0
2018-May-15 18:30N 29°60' W 093°57'0 0.0
2018-May-15 18:00N 29°60' W 093°57'0 0.0
2018-May-15 17:30N 29°60' W 093°57'0 0.0
2018-May-15 17:00N 29°60' W 093°57'0 0.0
2018-May-15 16:29N 29°60' W 093°57'0 0.0
2018-May-15 16:00N 29°60' W 093°57'0 0.0
2018-May-15 15:30N 29°60' W 093°57'0 0.0
2018-May-15 15:00N 29°60' W 093°57'0 0.0
2018-May-15 14:30N 29°60' W 093°57'0 0.0
2018-May-15 14:00N 29°60' W 093°57'0 0.0
2018-May-15 13:30N 29°60' W 093°57'0 0.0
2018-May-15 13:00N 29°60' W 093°57'0 0.0
2018-May-15 12:30N 29°60' W 093°57'0 0.0
2018-May-15 12:00N 29°60' W 093°57'0 0.0
2018-May-15 11:30N 29°60' W 093°57'0 0.0
2018-May-15 11:00N 29°60' W 093°57'0 0.0
2018-May-15 10:30N 29°60' W 093°57'0 0.0
2018-May-15 10:00N 29°60' W 093°57'0 0.0
2018-May-15 09:30N 29°60' W 093°57'0 0.0
2018-May-15 09:00N 29°60' W 093°57'0 0.0
2018-May-15 08:30N 29°60' W 093°57'0 0.0
2018-May-15 08:00N 29°60' W 093°57'0 0.0
2018-May-15 07:30N 29°60' W 093°57'0 0.0
2018-May-15 07:00N 29°60' W 093°57'0 0.0
2018-May-15 06:30N 29°60' W 093°57'0 0.0
2018-May-15 06:00N 29°60' W 093°57'0 0.0
2018-May-15 05:30N 29°60' W 093°57'0 0.0
2018-May-15 05:00N 29°60' W 093°57'0 0.0
2018-May-15 04:30N 29°60' W 093°57'0 0.0
2018-May-15 04:00N 29°60' W 093°57'0 0.0
2018-May-15 03:31N 29°60' W 093°57'0 0.0
2018-May-15 03:00N 29°60' W 093°57'0 0.0
2018-May-15 02:30N 29°60' W 093°57'0 0.0
2018-May-15 02:00N 29°60' W 093°57'0 0.0
2018-May-15 01:30N 29°60' W 093°57'0 0.0
2018-May-15 01:01N 29°60' W 093°57'0 0.0
2018-May-15 00:30N 29°60' W 093°57'0 0.0
2018-May-15 00:00N 29°60' W 093°57'0 0.0
2018-May-14 23:31N 29°60' W 093°57'0 0.0
2018-May-14 23:01N 29°60' W 093°57'0 0.0
2018-May-14 22:30N 29°60' W 093°57'0 0.0
2018-May-14 22:00N 29°60' W 093°57'0 0.0
2018-May-14 21:30N 29°60' W 093°57'0 0.0
2018-May-14 21:00N 29°60' W 093°57'0 0.0
2018-May-14 20:30N 29°60' W 093°57'0 0.0
2018-May-14 20:00N 29°60' W 093°57'0 0.0
2018-May-14 19:30N 29°60' W 093°57'0 0.0
2018-May-14 19:01N 29°60' W 093°57'0 0.1
2018-May-14 18:31N 29°60' W 093°57'0 0.1
2018-May-14 18:01N 29°60' W 093°57'0 0.3
2018-May-14 17:30N 29°60' W 093°57'0 0.0
2018-May-14 17:00N 29°60' W 093°57'2 3.8
2018-May-14 16:30N 29°59' W 093°54'3 5.4
2018-May-14 16:00N 29°58' W 093°51'3 5.7
2018-May-14 15:30N 29°56' W 093°52'3 5.8
2018-May-14 15:01N 29°54' W 093°55'3 5.3
2018-May-14 14:30N 29°51' W 093°56'3 5.4
2018-May-14 14:00N 29°49' W 093°58'2 5.0
2018-May-14 13:31N 29°48' W 094°01'3 5.6
2018-May-14 13:00N 29°46' W 094°03'3 5.4
2018-May-14 12:30N 29°44' W 094°05'3 5.3
2018-May-14 12:00N 29°43' W 094°08'2 4.8
2018-May-14 11:29N 29°41' W 094°10'2 5.0
2018-May-14 11:00N 29°40' W 094°13'3 5.2
2018-May-14 10:30N 29°39' W 094°16'3 5.1
2018-May-14 09:59N 29°38' W 094°18'3 5.2
2018-May-14 09:30N 29°37' W 094°21'4 4.5
2018-May-14 08:39N 29°35' W 094°25'1 4.8
2018-May-14 08:27N 29°35' W 094°25'3 4.1
2018-May-14 07:47N 29°33' W 094°28'17 5.2
2018-May-14 04:33N 29°25' W 094°44'0 4.8
2018-May-14 04:27N 29°24' W 094°45'2 4.1
2018-May-14 04:01N 29°23' W 094°46'2 3.9
2018-May-14 03:30N 29°23' W 094°48'2 4.0
2018-May-14 03:00N 29°24' W 094°49'3 5.6
2018-May-14 02:28N 29°27' W 094°51'3 6.4
2018-May-14 02:00N 29°30' W 094°52'3 6.2
2018-May-14 01:30N 29°32' W 094°54'3 5.7
2018-May-14 01:00N 29°35' W 094°56'3 5.6
2018-May-14 00:30N 29°37' W 094°58'3 5.7
2018-May-14 00:01N 29°40' W 094°59'3 5.4
2018-May-13 23:30N 29°42' W 095°00'2 4.7
2018-May-13 23:00N 29°44' W 095°02'3 5.3
2018-May-13 22:27N 29°46' W 095°05'3 5.5
2018-May-13 21:57N 29°44' W 095°07'2 5.4
2018-May-13 21:30N 29°45' W 095°10'3 5.2
2018-May-13 20:54N 29°43' W 095°13'0 0.0
2018-May-12 15:39N 29°44' W 095°14'2 5.7
2018-May-12 15:21N 29°44' W 095°12'2 5.4
2018-May-12 14:57N 29°45' W 095°10'2 4.5
2018-May-12 14:30N 29°44' W 095°07'2 4.7
2018-May-12 14:00N 29°46' W 095°05'1 2.1
2018-May-12 13:30N 29°47' W 095°06'0 0.2
2018-May-12 12:22N 29°47' W 095°06'0 0.9
2018-May-12 12:00N 29°47' W 095°06'2 0.1
2018-May-11 15:25N 29°45' W 095°06'1 2.6
2018-May-11 15:00N 29°46' W 095°06'1 1.1
2018-May-11 14:10N 29°47' W 095°06'1 0.1
2018-May-11 05:13N 29°47' W 095°05'2 3.9
2018-May-11 04:49N 29°45' W 095°04'2 5.7
2018-May-11 04:30N 29°44' W 095°03'2 4.9
2018-May-11 04:00N 29°42' W 095°01'3 5.4
2018-May-11 03:30N 29°40' W 094°59'  

Dump ship's entire track history